Terminal Aerodrome Forecast
Issued by NWS

Home | Current Version | Previous Version | Text Only | Print | Product List | Glossary On
Versions: 1 2 3 4 5 6 7 8 9 10 11 12 13 14 15 16 17 18 19 20 21 22 23 24
945
FTUS46 KLOX 242343
TAFSBP
TAF
KSBP 242343Z 2500/2524 29010KT P6SM FEW016 BKN150
     FM250200 30006KT P6SM BKN012 BKN150
     FM250600 VRB03KT 5SM -DZ BR BKN008 OVC016
     FM251500 17005KT P6SM OVC021
     FM252000 21007KT P6SM BKN025 OVC040=

USA.gov is the U.S. government's official web portal to all federal, state and local government web resources and services.